createdAt,value
2022-10-03T00:02:00.356Z,6.73
2022-10-03T00:06:49.007Z,6.93
2022-10-03T00:11:10.985Z,7.40
2022-10-03T00:15:35.539Z,7.37
2022-10-03T00:19:47.727Z,7.13
2022-10-03T00:24:19.773Z,7.23
2022-10-03T00:28:39.777Z,7.67
2022-10-03T00:32:58.103Z,7.17
2022-10-03T00:37:21.767Z,7.27
2022-10-03T00:42:35.696Z,8.13
2022-10-03T00:46:59.546Z,7.57
2022-10-03T00:51:22.174Z,6.53
2022-10-03T00:55:54.005Z,8.07
2022-10-03T01:00:34.787Z,7.73
2022-10-03T01:05:07.696Z,7.70
2022-10-03T01:09:27.408Z,8.07
2022-10-03T01:14:01.419Z,8.03
2022-10-03T01:18:16.149Z,8.20
2022-10-03T01:22:24.805Z,8.17
2022-10-03T01:26:46.231Z,8.23
2022-10-03T01:30:57.564Z,8.07
2022-10-03T01:36:07.278Z,7.63
2022-10-03T01:40:26.339Z,7.63
2022-10-03T01:44:55.516Z,7.73
2022-10-03T01:49:30.161Z,8.00
2022-10-03T01:53:47.779Z,8.40
2022-10-03T01:58:18.443Z,8.27
2022-10-03T02:02:34.219Z,7.47
2022-10-03T02:07:07.968Z,7.60
2022-10-03T02:11:09.103Z,8.70
2022-10-03T02:15:06.001Z,8.07
2022-10-03T02:19:22.786Z,8.67
2022-10-03T02:23:41.943Z,8.83
2022-10-03T02:28:23.567Z,9.23
2022-10-03T02:32:52.073Z,9.23
2022-10-03T02:37:23.757Z,9.30
2022-10-03T02:41:52.396Z,8.70
2022-10-03T02:46:42.670Z,9.67
2022-10-03T02:51:07.076Z,9.23
2022-10-03T02:55:47.337Z,7.40
2022-10-03T03:00:07.498Z,8.53
2022-10-03T03:04:56.700Z,7.70
2022-10-03T03:09:52.993Z,9.27
2022-10-03T03:14:09.556Z,8.43
2022-10-03T03:18:39.620Z,8.53
2022-10-03T03:22:50.860Z,8.80
2022-10-03T03:27:39.672Z,9.73
2022-10-03T03:32:03.047Z,9.00
2022-10-03T03:36:15.154Z,10.03
2022-10-03T03:41:03.113Z,10.17
2022-10-03T03:45:35.305Z,9.00
2022-10-03T03:50:20.260Z,8.73
2022-10-03T03:55:06.738Z,9.70
2022-10-03T03:59:44.513Z,9.40
2022-10-03T04:04:00.831Z,9.43
2022-10-03T04:08:34.601Z,9.37
2022-10-03T04:12:49.673Z,8.73
2022-10-03T04:17:46.454Z,9.17
2022-10-03T04:21:50.657Z,8.60
2022-10-03T04:26:18.910Z,8.30
2022-10-03T04:30:43.443Z,8.33
2022-10-03T04:34:55.130Z,9.03
2022-10-03T04:39:32.512Z,7.83
2022-10-03T04:43:53.835Z,7.90
2022-10-03T04:48:01.299Z,7.43
2022-10-03T04:52:13.367Z,7.80
2022-10-03T04:56:40.520Z,7.03
2022-10-03T05:01:24.800Z,7.40
2022-10-03T05:05:47.614Z,7.33
2022-10-03T05:09:56.930Z,7.20
2022-10-03T05:14:20.377Z,7.43
2022-10-03T05:18:27.776Z,7.30
2022-10-03T05:22:56.279Z,8.07
2022-10-03T05:27:40.969Z,8.13
2022-10-03T05:32:14.934Z,8.07
2022-10-03T05:36:41.653Z,9.10
2022-10-03T05:40:51.084Z,8.97
2022-10-03T05:45:30.502Z,9.70
2022-10-03T05:50:00.441Z,10.07
2022-10-03T05:54:47.781Z,10.03
2022-10-03T05:59:19.035Z,9.70
2022-10-03T06:03:42.841Z,10.33
2022-10-03T06:08:41.932Z,11.27
2022-10-03T06:13:11.410Z,11.83
2022-10-03T06:17:56.579Z,10.60
2022-10-03T06:22:27.744Z,10.40
2022-10-03T06:26:46.240Z,9.17
2022-10-03T06:31:12.466Z,9.50
2022-10-03T06:35:46.132Z,9.27
2022-10-03T06:40:47.598Z,9.20
2022-10-03T06:45:22.393Z,8.80
2022-10-03T06:49:50.825Z,7.47
2022-10-03T06:54:09.564Z,7.50
2022-10-03T06:58:53.490Z,6.90
2022-10-03T07:02:56.602Z,7.03
2022-10-03T07:07:19.626Z,5.90
2022-10-03T07:12:13.471Z,6.57
2022-10-03T07:16:48.781Z,6.10
2022-10-03T07:21:44.364Z,5.90
2022-10-03T07:26:10.975Z,6.20
2022-10-03T07:30:21.922Z,6.93
2022-10-03T07:35:15.429Z,6.37
2022-10-03T07:39:35.871Z,6.93
2022-10-03T07:43:56.148Z,6.40
2022-10-03T07:48:35.858Z,5.87
2022-10-03T07:52:57.445Z,5.80
2022-10-03T07:57:32.882Z,5.70
2022-10-03T08:02:23.251Z,5.40
2022-10-03T08:06:38.841Z,6.67
2022-10-03T08:11:14.858Z,4.40
2022-10-03T08:15:28.058Z,4.30
2022-10-03T08:19:42.997Z,3.90
2022-10-03T08:24:05.287Z,3.80
2022-10-03T08:28:44.342Z,3.40
2022-10-03T08:33:05.116Z,3.60
2022-10-03T08:37:29.165Z,2.83
2022-10-03T08:42:08.003Z,2.90
2022-10-03T08:46:37.655Z,3.33
2022-10-03T08:51:12.702Z,3.60
2022-10-03T08:55:45.663Z,5.47
2022-10-03T09:00:12.769Z,2.73
2022-10-03T09:04:49.886Z,3.00
2022-10-03T09:09:14.936Z,3.08
2022-10-03T09:13:50.871Z,2.65
2022-10-03T09:18:27.166Z,2.57
2022-10-03T09:22:53.831Z,2.60
2022-10-03T09:27:22.620Z,2.60
2022-10-03T09:31:38.212Z,2.25
2022-10-03T09:36:13.132Z,2.40
2022-10-03T09:41:09.894Z,2.85
2022-10-03T09:45:34.810Z,2.65
2022-10-03T09:50:19.468Z,2.83
2022-10-03T09:54:57.026Z,2.63
2022-10-03T09:59:22.673Z,2.28
2022-10-03T10:03:51.009Z,2.22
2022-10-03T10:07:57.163Z,2.40
2022-10-03T10:12:15.243Z,2.30
2022-10-03T10:16:54.185Z,1.90
2022-10-03T10:21:34.142Z,2.00
2022-10-03T10:26:34.619Z,2.40
2022-10-03T10:31:05.525Z,2.10
2022-10-03T10:35:44.614Z,2.55
2022-10-03T10:40:15.106Z,2.03
2022-10-03T10:45:01.634Z,2.22
2022-10-03T10:49:45.940Z,1.80
2022-10-03T10:54:24.515Z,2.40
2022-10-03T10:58:58.404Z,2.13
2022-10-03T11:03:54.420Z,2.20
2022-10-03T11:08:10.040Z,2.30
2022-10-03T11:12:58.845Z,2.30
2022-10-03T11:17:39.690Z,2.13
2022-10-03T11:22:26.614Z,2.53
2022-10-03T11:27:16.633Z,2.10
2022-10-03T11:32:09.721Z,1.83
2022-10-03T11:36:49.966Z,1.52
2022-10-03T11:41:16.397Z,1.42
2022-10-03T11:45:33.365Z,1.80
2022-10-03T11:50:25.793Z,1.50
2022-10-03T11:54:32.920Z,1.50
2022-10-03T11:58:39.082Z,1.38
2022-10-03T12:03:30.311Z,1.55
2022-10-03T12:07:58.877Z,1.70
2022-10-03T12:12:11.659Z,1.60
2022-10-03T12:16:27.908Z,1.40
2022-10-03T12:20:52.900Z,1.50
2022-10-03T12:24:56.227Z,1.10
2022-10-03T12:28:58.112Z,1.98
2022-10-03T12:33:10.851Z,1.50
2022-10-03T12:37:26.481Z,1.73
2022-10-03T12:42:05.511Z,1.27
2022-10-03T12:46:15.870Z,1.60
2022-10-03T12:50:28.074Z,1.35
2022-10-03T12:54:49.573Z,1.90
2022-10-03T12:59:23.851Z,1.58
2022-10-03T13:03:26.114Z,1.05
2022-10-03T13:07:38.601Z,1.30
2022-10-03T13:12:11.598Z,1.48
2022-10-03T13:16:43.756Z,1.30
2022-10-03T13:20:50.289Z,2.10
2022-10-03T13:25:21.919Z,1.70
2022-10-03T13:29:34.820Z,1.60
2022-10-03T13:33:51.324Z,1.35
2022-10-03T13:38:31.861Z,1.10
2022-10-03T13:42:53.878Z,1.15
2022-10-03T13:47:28.201Z,1.40
2022-10-03T13:51:53.932Z,1.23
2022-10-03T13:55:58.588Z,1.27
2022-10-03T14:00:16.390Z,1.58
2022-10-03T14:04:53.418Z,1.48
2022-10-03T14:09:05.370Z,1.92
2022-10-03T14:13:32.454Z,1.50
2022-10-03T14:17:54.511Z,1.50
2022-10-03T14:22:28.373Z,1.15
2022-10-03T14:26:36.598Z,1.30
2022-10-03T14:31:05.064Z,1.70
2022-10-03T14:35:46.180Z,1.90
2022-10-03T14:40:20.664Z,1.33
2022-10-03T14:44:29.903Z,1.77
2022-10-03T14:48:40.373Z,1.50
2022-10-03T14:53:02.109Z,1.65
2022-10-03T14:57:00.157Z,1.20
2022-10-03T15:01:12.567Z,1.63
2022-10-03T15:05:38.518Z,2.63
2022-10-03T15:09:50.099Z,2.08
2022-10-03T15:13:56.914Z,1.50
2022-10-03T15:18:00.609Z,2.38
2022-10-03T15:22:27.277Z,2.05
2022-10-03T15:26:31.009Z,1.83
2022-10-03T15:30:35.456Z,1.75
2022-10-03T15:34:40.292Z,2.10
2022-10-03T15:38:45.001Z,1.95
2022-10-03T15:43:01.449Z,2.30
2022-10-03T15:47:14.096Z,2.10
2022-10-03T15:51:19.771Z,3.97
2022-10-03T15:55:46.726Z,2.65
2022-10-03T15:59:47.170Z,2.08
2022-10-03T16:03:52.482Z,2.42
2022-10-03T16:08:06.862Z,2.28
2022-10-03T16:12:22.538Z,2.55
2022-10-03T16:16:35.848Z,2.50
2022-10-03T16:20:45.764Z,2.95
2022-10-03T16:25:28.043Z,2.77
2022-10-03T16:29:33.411Z,4.03
2022-10-03T16:34:16.594Z,3.03
2022-10-03T16:38:46.438Z,4.30
2022-10-03T16:42:50.287Z,3.77
2022-10-03T16:46:49.398Z,7.83
2022-10-03T16:50:53.887Z,4.53
2022-10-03T16:55:02.916Z,19.83
2022-10-03T16:59:13.215Z,16.83
2022-10-03T17:03:30.514Z,8.27
2022-10-03T17:07:39.301Z,8.73
2022-10-03T17:11:41.643Z,9.27
2022-10-03T17:16:00.020Z,8.17
2022-10-03T17:20:07.855Z,5.00
2022-10-03T17:24:20.928Z,4.17
2022-10-03T17:28:51.130Z,4.10
2022-10-03T17:33:08.892Z,5.40
2022-10-03T17:37:26.414Z,4.53
2022-10-03T17:42:04.447Z,4.67
2022-10-03T17:46:33.616Z,5.30
2022-10-03T17:50:40.071Z,5.57
2022-10-03T17:54:39.881Z,6.80
2022-10-03T17:58:45.596Z,8.50
2022-10-03T18:03:13.795Z,8.20
2022-10-03T18:07:22.733Z,5.93
2022-10-03T18:11:29.944Z,6.20
2022-10-03T18:16:11.396Z,6.20
2022-10-03T18:20:35.660Z,7.43
2022-10-03T18:25:36.283Z,7.10
2022-10-03T18:29:51.094Z,7.30
2022-10-03T18:34:09.214Z,7.43
2022-10-03T18:38:25.024Z,7.30
2022-10-03T18:42:30.448Z,9.10
2022-10-03T18:46:42.766Z,8.97
2022-10-03T18:50:59.294Z,4.83
2022-10-03T18:55:29.696Z,4.30
2022-10-03T18:59:47.844Z,4.13
2022-10-03T19:04:05.211Z,4.57
2022-10-03T19:08:38.925Z,4.70
2022-10-03T19:12:43.859Z,4.13
2022-10-03T19:17:05.435Z,4.57
2022-10-03T19:21:21.305Z,3.73
2022-10-03T19:25:25.342Z,5.30
2022-10-03T19:29:29.854Z,3.73
2022-10-03T19:33:32.017Z,2.97
2022-10-03T19:37:45.528Z,3.50
2022-10-03T19:42:19.715Z,3.90
2022-10-03T19:46:22.978Z,7.53
2022-10-03T19:50:36.124Z,4.13
2022-10-03T19:54:58.573Z,5.77
2022-10-03T19:59:15.593Z,7.13
2022-10-03T20:03:16.849Z,9.67
2022-10-03T20:07:25.666Z,8.63
2022-10-03T20:11:44.147Z,7.57
2022-10-03T20:15:47.230Z,7.70
2022-10-03T20:19:57.275Z,8.33
2022-10-03T20:23:56.894Z,7.37
2022-10-03T20:27:58.152Z,6.90
2022-10-03T20:32:04.716Z,5.47
2022-10-03T20:36:14.139Z,5.60
2022-10-03T20:40:28.388Z,7.23
2022-10-03T20:44:49.944Z,5.00
2022-10-03T20:49:15.788Z,4.23
2022-10-03T20:53:20.781Z,4.53
2022-10-03T20:57:52.364Z,22.40
2022-10-03T21:02:06.345Z,22.53
2022-10-03T21:06:16.644Z,8.70
2022-10-03T21:10:55.533Z,8.10
2022-10-03T21:15:04.563Z,7.40
2022-10-03T21:19:06.005Z,6.70
2022-10-03T21:23:14.490Z,6.07
2022-10-03T21:27:18.166Z,6.23
2022-10-03T21:31:26.246Z,7.37
2022-10-03T21:35:35.464Z,6.50
2022-10-03T21:40:18.001Z,8.37
2022-10-03T21:44:57.746Z,7.83
2022-10-03T21:49:13.712Z,10.83
2022-10-03T21:53:29.701Z,10.60
2022-10-03T21:58:23.731Z,9.00
2022-10-03T22:03:03.609Z,8.43
2022-10-03T22:07:15.031Z,7.97
2022-10-03T22:11:44.934Z,8.10
2022-10-03T22:16:09.910Z,9.10
2022-10-03T22:20:15.799Z,8.23
2022-10-03T22:24:29.476Z,17.00
2022-10-03T22:29:01.762Z,9.40
2022-10-03T22:33:18.888Z,7.77
2022-10-03T22:37:16.606Z,8.03
2022-10-03T22:41:21.868Z,8.47
2022-10-03T22:45:20.174Z,7.00
2022-10-03T22:49:26.871Z,6.20
2022-10-03T22:53:31.297Z,5.23
2022-10-03T22:57:31.757Z,6.07
2022-10-03T23:01:32.234Z,7.13
2022-10-03T23:06:09.766Z,6.90
2022-10-03T23:10:26.439Z,6.50
2022-10-03T23:14:32.336Z,5.90
2022-10-03T23:18:59.134Z,5.63
2022-10-03T23:23:02.324Z,5.07
2022-10-03T23:27:21.798Z,5.23
2022-10-03T23:32:09.319Z,5.37
2022-10-03T23:36:24.616Z,6.40
2022-10-03T23:40:40.047Z,6.90
2022-10-03T23:45:00.898Z,6.00
2022-10-03T23:49:02.009Z,6.93
2022-10-03T23:53:00.911Z,5.97
2022-10-03T23:57:07.957Z,6.33
